sensor_id;sensor_type;location;lat;lon;timestamp;pressure;altitude;pressure_sealevel;temperature;humidity
10940;BME280;5522;42.696;23.494;2022-08-11T00:00:20;95789.28;;;18.96;100.00
10940;BME280;5522;42.696;23.494;2022-08-11T00:02:49;95779.00;;;18.94;100.00
10940;BME280;5522;42.696;23.494;2022-08-11T00:05:19;95779.59;;;18.84;100.00
10940;BME280;5522;42.696;23.494;2022-08-11T00:07:48;95786.88;;;18.87;100.00
10940;BME280;5522;42.696;23.494;2022-08-11T00:10:17;95790.59;;;18.83;100.00
10940;BME280;5522;42.696;23.494;2022-08-11T00:12:51;95791.25;;;18.76;100.00
10940;BME280;5522;42.696;23.494;2022-08-11T00:15:19;95792.38;;;18.75;100.00
10940;BME280;5522;42.696;23.494;2022-08-11T00:17:47;95779.75;;;18.69;100.00
10940;BME280;5522;42.696;23.494;2022-08-11T00:22:50;95787.09;;;18.56;100.00
10940;BME280;5522;42.696;23.494;2022-08-11T00:25:19;95795.78;;;18.53;100.00
10940;BME280;5522;42.696;23.494;2022-08-11T00:27:47;95782.38;;;18.46;100.00
10940;BME280;5522;42.696;23.494;2022-08-11T00:30:15;95789.44;;;18.39;100.00
10940;BME280;5522;42.696;23.494;2022-08-11T00:32:45;95787.00;;;18.30;100.00
10940;BME280;5522;42.696;23.494;2022-08-11T00:35:25;95792.88;;;18.20;100.00
10940;BME280;5522;42.696;23.494;2022-08-11T00:37:53;95786.03;;;18.19;100.00
10940;BME280;5522;42.696;23.494;2022-08-11T00:40:27;95784.06;;;18.16;100.00
10940;BME280;5522;42.696;23.494;2022-08-11T00:43:00;95781.00;;;18.14;100.00
10940;BME280;5522;42.696;23.494;2022-08-11T00:45:39;95785.06;;;18.08;100.00
10940;BME280;5522;42.696;23.494;2022-08-11T00:48:18;95790.66;;;18.03;100.00
10940;BME280;5522;42.696;23.494;2022-08-11T00:50:59;95797.09;;;18.02;100.00
10940;BME280;5522;42.696;23.494;2022-08-11T00:53:38;95794.72;;;17.97;100.00
10940;BME280;5522;42.696;23.494;2022-08-11T00:59:22;95793.88;;;17.93;100.00
10940;BME280;5522;42.696;23.494;2022-08-11T01:07:30;95790.00;;;17.53;100.00
10940;BME280;5522;42.696;23.494;2022-08-11T01:10:13;95784.19;;;17.47;100.00
10940;BME280;5522;42.696;23.494;2022-08-11T01:12:59;95788.47;;;17.36;100.00
10940;BME280;5522;42.696;23.494;2022-08-11T01:22:12;95783.78;;;16.99;100.00
10940;BME280;5522;42.696;23.494;2022-08-11T01:37:26;95781.25;;;16.71;100.00
10940;BME280;5522;42.696;23.494;2022-08-11T01:40:21;95777.41;;;16.69;100.00
10940;BME280;5522;42.696;23.494;2022-08-11T01:43:22;95778.00;;;16.62;100.00
10940;BME280;5522;42.696;23.494;2022-08-11T01:46:16;95780.97;;;16.61;100.00
10940;BME280;5522;42.696;23.494;2022-08-11T01:48:56;95782.56;;;16.62;100.00
10940;BME280;5522;42.696;23.494;2022-08-11T01:51:36;95780.97;;;16.61;100.00
10940;BME280;5522;42.696;23.494;2022-08-11T01:54:19;95782.97;;;16.64;100.00
10940;BME280;5522;42.696;23.494;2022-08-11T01:57:09;95774.81;;;16.57;100.00
10940;BME280;5522;42.696;23.494;2022-08-11T01:59:42;95784.41;;;16.61;100.00
10940;BME280;5522;42.696;23.494;2022-08-11T02:02:29;95789.28;;;16.59;100.00
10940;BME280;5522;42.696;23.494;2022-08-11T02:05:49;95791.69;;;16.64;100.00
10940;BME280;5522;42.696;23.494;2022-08-11T02:08:34;95797.22;;;16.59;100.00
10940;BME280;5522;42.696;23.494;2022-08-11T02:11:20;95787.00;;;16.58;100.00
10940;BME280;5522;42.696;23.494;2022-08-11T02:14:11;95787.84;;;16.62;100.00
10940;BME280;5522;42.696;23.494;2022-08-11T02:16:54;95793.03;;;16.58;100.00
10940;BME280;5522;42.696;23.494;2022-08-11T02:19:24;95790.06;;;16.60;100.00
10940;BME280;5522;42.696;23.494;2022-08-11T02:22:16;95789.53;;;16.54;100.00
10940;BME280;5522;42.696;23.494;2022-08-11T02:25:05;95789.78;;;16.49;100.00
10940;BME280;5522;42.696;23.494;2022-08-11T02:27:42;95789.38;;;16.47;100.00
10940;BME280;5522;42.696;23.494;2022-08-11T02:30:13;95788.25;;;16.48;100.00
10940;BME280;5522;42.696;23.494;2022-08-11T02:32:47;95788.06;;;16.41;100.00
10940;BME280;5522;42.696;23.494;2022-08-11T02:35:40;95782.66;;;16.37;100.00
10940;BME280;5522;42.696;23.494;2022-08-11T02:38:17;95777.69;;;16.36;100.00
10940;BME280;5522;42.696;23.494;2022-08-11T02:40:49;95789.41;;;16.35;100.00
10940;BME280;5522;42.696;23.494;2022-08-11T02:43:27;95786.97;;;16.30;100.00
10940;BME280;5522;42.696;23.494;2022-08-11T02:46:17;95787.75;;;16.30;100.00
10940;BME280;5522;42.696;23.494;2022-08-11T02:48:55;95785.78;;;16.27;100.00
10940;BME280;5522;42.696;23.494;2022-08-11T02:51:54;95791.00;;;16.24;100.00
10940;BME280;5522;42.696;23.494;2022-08-11T02:54:30;95790.47;;;16.18;100.00
10940;BME280;5522;42.696;23.494;2022-08-11T02:57:03;95785.09;;;16.15;100.00
10940;BME280;5522;42.696;23.494;2022-08-11T02:59:42;95793.78;;;16.15;100.00
10940;BME280;5522;42.696;23.494;2022-08-11T03:02:39;95806.53;;;16.10;100.00
10940;BME280;5522;42.696;23.494;2022-08-11T03:05:41;95789.66;;;16.02;100.00
10940;BME280;5522;42.696;23.494;2022-08-11T03:08:19;95802.16;;;16.02;100.00
10940;BME280;5522;42.696;23.494;2022-08-11T03:10:56;95801.28;;;15.98;100.00
10940;BME280;5522;42.696;23.494;2022-08-11T03:13:50;95810.59;;;16.07;100.00
10940;BME280;5522;42.696;23.494;2022-08-11T03:16:56;95806.16;;;16.11;100.00
10940;BME280;5522;42.696;23.494;2022-08-11T03:19:29;95809.28;;;16.13;100.00
10940;BME280;5522;42.696;23.494;2022-08-11T03:22:08;95798.22;;;16.11;100.00
10940;BME280;5522;42.696;23.494;2022-08-11T03:24:51;95805.50;;;16.14;100.00
10940;BME280;5522;42.696;23.494;2022-08-11T03:27:45;95809.19;;;16.10;100.00
10940;BME280;5522;42.696;23.494;2022-08-11T03:30:16;95812.25;;;16.12;100.00
10940;BME280;5522;42.696;23.494;2022-08-11T03:33:00;95804.75;;;16.14;100.00
10940;BME280;5522;42.696;23.494;2022-08-11T03:35:58;95813.03;;;16.12;100.00
10940;BME280;5522;42.696;23.494;2022-08-11T03:38:42;95819.34;;;16.08;100.00
10940;BME280;5522;42.696;23.494;2022-08-11T03:41:18;95812.16;;;16.08;100.00
10940;BME280;5522;42.696;23.494;2022-08-11T03:44:09;95816.97;;;16.18;100.00
10940;BME280;5522;42.696;23.494;2022-08-11T03:46:55;95812.63;;;16.26;100.00
10940;BME280;5522;42.696;23.494;2022-08-11T03:49:35;95814.78;;;16.36;100.00
10940;BME280;5522;42.696;23.494;2022-08-11T03:52:15;95815.19;;;16.50;100.00
10940;BME280;5522;42.696;23.494;2022-08-11T03:54:53;95818.09;;;16.61;100.00
10940;BME280;5522;42.696;23.494;2022-08-11T03:57:53;95815.81;;;16.75;100.00
10940;BME280;5522;42.696;23.494;2022-08-11T04:00:43;95811.63;;;16.89;100.00
10940;BME280;5522;42.696;23.494;2022-08-11T04:06:44;95809.19;;;17.31;100.00
10940;BME280;5522;42.696;23.494;2022-08-11T04:12:56;95813.66;;;17.96;100.00
10940;BME280;5522;42.696;23.494;2022-08-11T04:16:07;95816.53;;;18.25;100.00
10940;BME280;5522;42.696;23.494;2022-08-11T04:22:25;95811.25;;;19.15;100.00
10940;BME280;5522;42.696;23.494;2022-08-11T04:25:19;95815.19;;;20.03;100.00
10940;BME280;5522;42.696;23.494;2022-08-11T04:28:11;95815.91;;;21.02;100.00
10940;BME280;5522;42.696;23.494;2022-08-11T04:31:01;95811.25;;;22.11;100.00
10940;BME280;5522;42.696;23.494;2022-08-11T04:33:40;95823.72;;;22.75;100.00
10940;BME280;5522;42.696;23.494;2022-08-11T04:36:34;95826.41;;;23.77;100.00
10940;BME280;5522;42.696;23.494;2022-08-11T04:39:33;95836.81;;;25.26;100.00
10940;BME280;5522;42.696;23.494;2022-08-11T04:48:52;95833.78;;;27.94;100.00
10940;BME280;5522;42.696;23.494;2022-08-11T04:52:01;95837.16;;;28.18;96.63
10940;BME280;5522;42.696;23.494;2022-08-11T04:55:01;95845.63;;;28.94;93.81
10940;BME280;5522;42.696;23.494;2022-08-11T04:58:03;95850.56;;;29.95;82.20
10940;BME280;5522;42.696;23.494;2022-08-11T05:00:58;95852.72;;;30.17;76.83
10940;BME280;5522;42.696;23.494;2022-08-11T05:04:11;95848.22;;;30.80;72.71
10940;BME280;5522;42.696;23.494;2022-08-11T05:07:34;95843.41;;;31.84;66.30
10940;BME280;5522;42.696;23.494;2022-08-11T05:10:23;95830.25;;;31.11;67.31
10940;BME280;5522;42.696;23.494;2022-08-11T05:12:54;95844.78;;;31.17;67.26
10940;BME280;5522;42.696;23.494;2022-08-11T05:15:46;95845.50;;;31.55;67.27
10940;BME280;5522;42.696;23.494;2022-08-11T05:18:32;95850.28;;;31.63;66.79
10940;BME280;5522;42.696;23.494;2022-08-11T05:21:20;95843.97;;;32.56;60.26
10940;BME280;5522;42.696;23.494;2022-08-11T05:24:24;95841.41;;;32.83;58.29
10940;BME280;5522;42.696;23.494;2022-08-11T05:27:13;95841.84;;;32.29;59.02
10940;BME280;5522;42.696;23.494;2022-08-11T05:30:02;95843.59;;;32.45;58.82
10940;BME280;5522;42.696;23.494;2022-08-11T05:32:56;95836.38;;;33.51;54.79
10940;BME280;5522;42.696;23.494;2022-08-11T05:35:44;95841.44;;;33.80;52.43
10940;BME280;5522;42.696;23.494;2022-08-11T05:38:15;95836.16;;;33.28;55.05
10940;BME280;5522;42.696;23.494;2022-08-11T05:41:02;95824.59;;;33.06;56.31
10940;BME280;5522;42.696;23.494;2022-08-11T05:43:49;95828.72;;;33.77;53.98
10940;BME280;5522;42.696;23.494;2022-08-11T05:46:38;95839.50;;;34.44;50.61
10940;BME280;5522;42.696;23.494;2022-08-11T05:49:28;95836.88;;;33.68;51.93
10940;BME280;5522;42.696;23.494;2022-08-11T05:52:14;95835.81;;;33.56;52.32
10940;BME280;5522;42.696;23.494;2022-08-11T05:55:02;95827.97;;;33.28;54.83
10940;BME280;5522;42.696;23.494;2022-08-11T05:57:48;95835.25;;;33.22;54.02
10940;BME280;5522;42.696;23.494;2022-08-11T06:00:20;95830.63;;;33.01;55.50
10940;BME280;5522;42.696;23.494;2022-08-11T06:02:50;95827.50;;;33.11;54.89
10940;BME280;5522;42.696;23.494;2022-08-11T06:05:19;95814.31;;;33.58;54.03
10940;BME280;5522;42.696;23.494;2022-08-11T06:07:48;95816.84;;;33.35;54.54
10940;BME280;5522;42.696;23.494;2022-08-11T06:10:25;95819.38;;;32.90;57.97
10940;BME280;5522;42.696;23.494;2022-08-11T06:12:53;95808.56;;;33.08;55.96
10940;BME280;5522;42.696;23.494;2022-08-11T06:15:24;95817.81;;;33.68;53.90
10940;BME280;5522;42.696;23.494;2022-08-11T06:17:52;95816.41;;;33.45;55.98
10940;BME280;5522;42.696;23.494;2022-08-11T06:20:21;95815.53;;;33.48;54.82
10940;BME280;5522;42.696;23.494;2022-08-11T06:22:56;95826.03;;;34.22;49.81
10940;BME280;5522;42.696;23.494;2022-08-11T06:25:29;95823.63;;;34.93;46.82
10940;BME280;5522;42.696;23.494;2022-08-11T06:27:56;95815.47;;;34.84;47.99
10940;BME280;5522;42.696;23.494;2022-08-11T06:30:34;95818.00;;;34.96;47.13
10940;BME280;5522;42.696;23.494;2022-08-11T06:33:08;95814.50;;;34.18;47.44
10940;BME280;5522;42.696;23.494;2022-08-11T06:35:45;95817.88;;;34.91;49.38
10940;BME280;5522;42.696;23.494;2022-08-11T06:38:22;95817.41;;;35.57;46.08
10940;BME280;5522;42.696;23.494;2022-08-11T06:40:56;95809.22;;;35.57;44.19
10940;BME280;5522;42.696;23.494;2022-08-11T06:44:04;95808.41;;;35.42;44.92
10940;BME280;5522;42.696;23.494;2022-08-11T06:46:36;95808.72;;;35.35;44.93
10940;BME280;5522;42.696;23.494;2022-08-11T06:49:05;95805.06;;;35.85;45.94
10940;BME280;5522;42.696;23.494;2022-08-11T06:51:53;95803.91;;;36.01;42.75
10940;BME280;5522;42.696;23.494;2022-08-11T06:54:20;95807.22;;;35.81;44.39
10940;BME280;5522;42.696;23.494;2022-08-11T06:56:50;95806.84;;;36.12;42.57
10940;BME280;5522;42.696;23.494;2022-08-11T06:59:35;95805.72;;;35.80;44.18
10940;BME280;5522;42.696;23.494;2022-08-11T07:02:26;95804.81;;;35.83;43.14
10940;BME280;5522;42.696;23.494;2022-08-11T07:04:58;95805.25;;;35.58;43.57
10940;BME280;5522;42.696;23.494;2022-08-11T07:13:50;95794.56;;;35.93;43.15
10940;BME280;5522;42.696;23.494;2022-08-11T07:14:22;95804.94;;;36.70;39.82
10940;BME280;5522;42.696;23.494;2022-08-11T07:23:53;95805.94;;;38.36;36.53
10940;BME280;5522;42.696;23.494;2022-08-11T07:26:40;95801.69;;;38.35;34.89
10940;BME280;5522;42.696;23.494;2022-08-11T07:29:28;95794.13;;;37.10;37.35
10940;BME280;5522;42.696;23.494;2022-08-11T07:31:57;95790.44;;;37.13;36.83
10940;BME280;5522;42.696;23.494;2022-08-11T07:34:33;95796.44;;;36.83;36.83
10940;BME280;5522;42.696;23.494;2022-08-11T07:37:08;95792.72;;;35.75;40.47
10940;BME280;5522;42.696;23.494;2022-08-11T07:39:38;95789.41;;;34.83;40.83
10940;BME280;5522;42.696;23.494;2022-08-11T07:42:11;95783.34;;;35.44;43.07
10940;BME280;5522;42.696;23.494;2022-08-11T07:44:39;95787.47;;;35.86;42.57
10940;BME280;5522;42.696;23.494;2022-08-11T07:47:22;95786.81;;;36.44;40.12
10940;BME280;5522;42.696;23.494;2022-08-11T07:50:08;95783.31;;;37.21;36.55
10940;BME280;5522;42.696;23.494;2022-08-11T07:52:53;95778.25;;;37.14;37.63
10940;BME280;5522;42.696;23.494;2022-08-11T07:55:23;95775.53;;;37.14;36.33
10940;BME280;5522;42.696;23.494;2022-08-11T07:57:51;95774.28;;;37.15;36.39
10940;BME280;5522;42.696;23.494;2022-08-11T08:00:36;95782.81;;;38.17;34.12
10940;BME280;5522;42.696;23.494;2022-08-11T08:03:21;95770.88;;;38.00;34.82
10940;BME280;5522;42.696;23.494;2022-08-11T08:06:06;95785.09;;;38.24;35.09
10940;BME280;5522;42.696;23.494;2022-08-11T08:08:51;95778.66;;;38.27;32.84
10940;BME280;5522;42.696;23.494;2022-08-11T08:11:37;95771.22;;;38.33;34.90
10940;BME280;5522;42.696;23.494;2022-08-11T08:14:22;95777.03;;;38.15;34.09
10940;BME280;5522;42.696;23.494;2022-08-11T08:17:08;95774.66;;;38.28;33.24
10940;BME280;5522;42.696;23.494;2022-08-11T08:19:53;95771.44;;;38.87;31.30
10940;BME280;5522;42.696;23.494;2022-08-11T08:22:20;95775.97;;;39.26;31.83
10940;BME280;5522;42.696;23.494;2022-08-11T08:24:48;95765.38;;;39.08;31.82
10940;BME280;5522;42.696;23.494;2022-08-11T08:27:17;95772.59;;;39.42;32.36
10940;BME280;5522;42.696;23.494;2022-08-11T08:29:46;95769.94;;;39.17;30.70
10940;BME280;5522;42.696;23.494;2022-08-11T08:32:31;95763.06;;;40.02;31.78
10940;BME280;5522;42.696;23.494;2022-08-11T08:35:01;95758.38;;;40.19;30.09
10940;BME280;5522;42.696;23.494;2022-08-11T08:37:28;95762.16;;;39.10;29.81
10940;BME280;5522;42.696;23.494;2022-08-11T08:39:55;95751.59;;;38.40;33.54
10940;BME280;5522;42.696;23.494;2022-08-11T08:42:26;95747.88;;;38.75;32.04
10940;BME280;5522;42.696;23.494;2022-08-11T08:44:57;95746.44;;;38.79;32.03
10940;BME280;5522;42.696;23.494;2022-08-11T08:47:25;95741.41;;;39.56;30.51
10940;BME280;5522;42.696;23.494;2022-08-11T08:49:59;95753.38;;;39.06;30.18
10940;BME280;5522;42.696;23.494;2022-08-11T08:52:28;95751.28;;;39.85;29.18
10940;BME280;5522;42.696;23.494;2022-08-11T08:55:01;95751.97;;;38.54;30.32
10940;BME280;5522;42.696;23.494;2022-08-11T08:57:34;95741.31;;;37.44;32.90
10940;BME280;5522;42.696;23.494;2022-08-11T09:00:03;95737.88;;;37.49;30.30
10940;BME280;5522;42.696;23.494;2022-08-11T09:02:31;95741.09;;;36.93;31.33
10940;BME280;5522;42.696;23.494;2022-08-11T09:04:58;95738.41;;;36.99;34.51
10940;BME280;5522;42.696;23.494;2022-08-11T09:07:26;95735.84;;;37.64;31.71
10940;BME280;5522;42.696;23.494;2022-08-11T09:09:56;95739.78;;;38.55;30.27
10940;BME280;5522;42.696;23.494;2022-08-11T09:12:26;95731.41;;;38.43;32.27
10940;BME280;5522;42.696;23.494;2022-08-11T09:14:55;95726.91;;;38.15;32.53
10940;BME280;5522;42.696;23.494;2022-08-11T09:17:29;95722.19;;;36.95;33.60
10940;BME280;5522;42.696;23.494;2022-08-11T09:19:58;95714.75;;;36.32;35.56
10940;BME280;5522;42.696;23.494;2022-08-11T09:22:27;95699.63;;;35.93;35.16
10940;BME280;5522;42.696;23.494;2022-08-11T09:25:11;95706.22;;;35.02;34.60
10940;BME280;5522;42.696;23.494;2022-08-11T09:27:57;95703.00;;;34.29;39.72
10940;BME280;5522;42.696;23.494;2022-08-11T09:30:26;95705.53;;;33.46;40.72
10940;BME280;5522;42.696;23.494;2022-08-11T09:32:55;95704.25;;;33.11;43.17
10940;BME280;5522;42.696;23.494;2022-08-11T09:35:26;95700.31;;;34.11;41.99
10940;BME280;5522;42.696;23.494;2022-08-11T09:37:55;95700.75;;;35.49;40.03
10940;BME280;5522;42.696;23.494;2022-08-11T09:40:42;95693.56;;;35.89;39.02
10940;BME280;5522;42.696;23.494;2022-08-11T09:43:12;95698.78;;;35.49;39.11
10940;BME280;5522;42.696;23.494;2022-08-11T09:45:58;95691.59;;;35.37;41.99
10940;BME280;5522;42.696;23.494;2022-08-11T09:48:29;95696.81;;;35.64;43.36
10940;BME280;5522;42.696;23.494;2022-08-11T09:50:59;95695.06;;;35.38;39.64
10940;BME280;5522;42.696;23.494;2022-08-11T09:53:31;95688.34;;;36.29;39.90
10940;BME280;5522;42.696;23.494;2022-08-11T09:55:59;95693.06;;;36.63;37.87
10940;BME280;5522;42.696;23.494;2022-08-11T09:58:48;95689.91;;;38.05;37.45
10940;BME280;5522;42.696;23.494;2022-08-11T10:01:20;95689.75;;;38.45;34.98
10940;BME280;5522;42.696;23.494;2022-08-11T10:03:54;95683.53;;;38.81;35.02
10940;BME280;5522;42.696;23.494;2022-08-11T10:06:24;95682.53;;;39.90;33.76
10940;BME280;5522;42.696;23.494;2022-08-11T10:09:05;95681.56;;;39.93;32.10
10940;BME280;5522;42.696;23.494;2022-08-11T10:11:33;95683.25;;;38.74;34.10
10940;BME280;5522;42.696;23.494;2022-08-11T10:14:04;95665.88;;;37.09;34.14
10940;BME280;5522;42.696;23.494;2022-08-11T10:16:52;95649.78;;;34.84;38.01
10940;BME280;5522;42.696;23.494;2022-08-11T10:19:19;95655.13;;;34.70;44.55
10940;BME280;5522;42.696;23.494;2022-08-11T10:21:50;95649.78;;;34.84;46.81
10940;BME280;5522;42.696;23.494;2022-08-11T10:24:38;95649.66;;;34.46;41.88
10940;BME280;5522;42.696;23.494;2022-08-11T10:27:26;95653.19;;;34.94;41.80
10940;BME280;5522;42.696;23.494;2022-08-11T10:29:53;95643.13;;;34.76;42.94
10940;BME280;5522;42.696;23.494;2022-08-11T10:32:40;95656.75;;;34.02;37.89
10940;BME280;5522;42.696;23.494;2022-08-11T10:35:25;95655.13;;;33.59;44.34
10940;BME280;5522;42.696;23.494;2022-08-11T10:37:53;95661.03;;;33.85;46.86
10940;BME280;5522;42.696;23.494;2022-08-11T10:40:21;95653.66;;;34.18;45.53
10940;BME280;5522;42.696;23.494;2022-08-11T10:42:50;95655.47;;;34.21;51.61
10940;BME280;5522;42.696;23.494;2022-08-11T10:45:34;95636.72;;;34.56;48.46
10940;BME280;5522;42.696;23.494;2022-08-11T10:48:21;95635.03;;;34.58;45.98
10940;BME280;5522;42.696;23.494;2022-08-11T10:50:51;95632.09;;;34.38;44.17
10940;BME280;5522;42.696;23.494;2022-08-11T10:53:37;95628.03;;;34.33;47.96
10940;BME280;5522;42.696;23.494;2022-08-11T10:56:22;95626.22;;;34.21;44.52
10940;BME280;5522;42.696;23.494;2022-08-11T10:59:07;95632.34;;;34.49;43.97
10940;BME280;5522;42.696;23.494;2022-08-11T11:01:37;95623.16;;;34.38;47.30
10940;BME280;5522;42.696;23.494;2022-08-11T11:04:10;95632.72;;;35.13;43.12
10940;BME280;5522;42.696;23.494;2022-08-11T11:06:47;95634.66;;;34.74;39.04
10940;BME280;5522;42.696;23.494;2022-08-11T11:09:16;95641.84;;;34.12;42.83
10940;BME280;5522;42.696;23.494;2022-08-11T11:11:48;95642.84;;;32.92;43.07
10940;BME280;5522;42.696;23.494;2022-08-11T11:14:33;95641.88;;;30.99;51.86
10940;BME280;5522;42.696;23.494;2022-08-11T11:17:25;95629.44;;;28.59;76.53
10940;BME280;5522;42.696;23.494;2022-08-11T11:20:13;95626.94;;;28.00;75.41
10940;BME280;5522;42.696;23.494;2022-08-11T11:22:43;95621.72;;;27.35;81.89
10940;BME280;5522;42.696;23.494;2022-08-11T11:25:20;95619.50;;;26.87;89.52
10940;BME280;5522;42.696;23.494;2022-08-11T11:27:58;95625.47;;;26.98;89.13
10940;BME280;5522;42.696;23.494;2022-08-11T11:30:32;95625.50;;;26.95;95.49
10940;BME280;5522;42.696;23.494;2022-08-11T11:33:05;95640.13;;;26.97;95.32
10940;BME280;5522;42.696;23.494;2022-08-11T11:35:48;95627.34;;;27.01;90.35
10940;BME280;5522;42.696;23.494;2022-08-11T11:38:19;95616.53;;;27.24;85.40
10940;BME280;5522;42.696;23.494;2022-08-11T11:40:47;95633.56;;;26.98;83.68
10940;BME280;5522;42.696;23.494;2022-08-11T11:43:35;95629.06;;;26.92;86.93
10940;BME280;5522;42.696;23.494;2022-08-11T11:46:04;95626.97;;;26.80;87.91
10940;BME280;5522;42.696;23.494;2022-08-11T11:48:33;95617.59;;;27.07;85.45
10940;BME280;5522;42.696;23.494;2022-08-11T11:51:03;95617.00;;;27.39;86.51
10940;BME280;5522;42.696;23.494;2022-08-11T11:53:30;95616.16;;;28.16;77.15
10940;BME280;5522;42.696;23.494;2022-08-11T11:55:58;95609.84;;;27.87;73.31
10940;BME280;5522;42.696;23.494;2022-08-11T11:58:25;95615.00;;;28.17;71.83
10940;BME280;5522;42.696;23.494;2022-08-11T12:01:10;95608.44;;;28.50;68.38
10940;BME280;5522;42.696;23.494;2022-08-11T12:03:46;95627.38;;;28.95;68.35
10940;BME280;5522;42.696;23.494;2022-08-11T12:06:18;95632.75;;;28.66;64.38
10940;BME280;5522;42.696;23.494;2022-08-11T12:08:48;95627.69;;;28.52;65.58
10940;BME280;5522;42.696;23.494;2022-08-11T12:11:18;95616.06;;;28.84;69.03
10940;BME280;5522;42.696;23.494;2022-08-11T12:14:06;95617.34;;;28.95;64.46
10940;BME280;5522;42.696;23.494;2022-08-11T12:16:37;95594.66;;;28.77;65.29
10940;BME280;5522;42.696;23.494;2022-08-11T12:19:07;95606.63;;;28.60;67.81
10940;BME280;5522;42.696;23.494;2022-08-11T12:21:38;95598.03;;;28.81;72.77
10940;BME280;5522;42.696;23.494;2022-08-11T12:24:27;95590.09;;;28.74;70.78
10940;BME280;5522;42.696;23.494;2022-08-11T12:27:13;95593.38;;;28.65;71.13
10940;BME280;5522;42.696;23.494;2022-08-11T12:29:47;95600.63;;;28.20;75.83
10940;BME280;5522;42.696;23.494;2022-08-11T12:32:15;95589.16;;;28.00;75.76
10940;BME280;5522;42.696;23.494;2022-08-11T12:34:42;95589.97;;;27.97;81.01
10940;BME280;5522;42.696;23.494;2022-08-11T12:37:12;95579.78;;;28.21;85.78
10940;BME280;5522;42.696;23.494;2022-08-11T12:39:45;95586.88;;;28.31;95.46
10940;BME280;5522;42.696;23.494;2022-08-11T12:42:32;95592.50;;;28.04;88.89
10940;BME280;5522;42.696;23.494;2022-08-11T12:45:18;95598.22;;;27.90;90.44
10940;BME280;5522;42.696;23.494;2022-08-11T12:48:03;95611.09;;;28.34;79.21
10940;BME280;5522;42.696;23.494;2022-08-11T12:50:51;95608.91;;;28.61;74.27
10940;BME280;5522;42.696;23.494;2022-08-11T12:53:42;95613.56;;;28.29;74.44
10940;BME280;5522;42.696;23.494;2022-08-11T12:56:11;95610.75;;;28.16;78.35
10940;BME280;5522;42.696;23.494;2022-08-11T12:58:55;95609.38;;;28.08;83.42
10940;BME280;5522;42.696;23.494;2022-08-11T13:01:42;95599.69;;;27.95;80.86
10940;BME280;5522;42.696;23.494;2022-08-11T13:04:27;95594.53;;;27.81;85.13
10940;BME280;5522;42.696;23.494;2022-08-11T13:07:13;95600.59;;;27.88;99.73
10940;BME280;5522;42.696;23.494;2022-08-11T13:09:43;95602.38;;;27.75;94.76
10940;BME280;5522;42.696;23.494;2022-08-11T13:12:11;95603.34;;;27.85;98.88
10940;BME280;5522;42.696;23.494;2022-08-11T13:14:57;95606.56;;;27.60;100.00
10940;BME280;5522;42.696;23.494;2022-08-11T13:17:25;95603.69;;;27.51;100.00
10940;BME280;5522;42.696;23.494;2022-08-11T13:19:54;95597.50;;;27.51;100.00
10940;BME280;5522;42.696;23.494;2022-08-11T13:22:23;95599.53;;;27.47;98.28
10940;BME280;5522;42.696;23.494;2022-08-11T13:24:53;95593.16;;;27.37;97.57
10940;BME280;5522;42.696;23.494;2022-08-11T13:27:23;95591.06;;;27.25;98.77
10940;BME280;5522;42.696;23.494;2022-08-11T13:29:50;95578.88;;;27.17;94.30
10940;BME280;5522;42.696;23.494;2022-08-11T13:32:39;95583.53;;;27.36;95.97
10940;BME280;5522;42.696;23.494;2022-08-11T13:35:08;95579.94;;;27.43;87.42
10940;BME280;5522;42.696;23.494;2022-08-11T13:37:36;95575.47;;;27.36;89.38
10940;BME280;5522;42.696;23.494;2022-08-11T13:40:06;95564.44;;;27.08;84.04
10940;BME280;5522;42.696;23.494;2022-08-11T13:42:34;95566.47;;;27.04;92.06
10940;BME280;5522;42.696;23.494;2022-08-11T13:45:01;95563.97;;;26.93;90.46
10940;BME280;5522;42.696;23.494;2022-08-11T13:47:30;95565.06;;;26.96;95.55
10940;BME280;5522;42.696;23.494;2022-08-11T13:49:59;95563.81;;;27.00;93.79
10940;BME280;5522;42.696;23.494;2022-08-11T13:52:30;95569.00;;;26.91;91.12
10940;BME280;5522;42.696;23.494;2022-08-11T13:54:57;95563.28;;;27.09;87.64
10940;BME280;5522;42.696;23.494;2022-08-11T13:57:29;95551.66;;;27.12;78.36
10940;BME280;5522;42.696;23.494;2022-08-11T13:59:59;95562.59;;;27.24;82.38
10940;BME280;5522;42.696;23.494;2022-08-11T14:02:37;95558.66;;;27.29;81.21
10940;BME280;5522;42.696;23.494;2022-08-11T14:05:10;95561.16;;;27.20;84.52
10940;BME280;5522;42.696;23.494;2022-08-11T14:07:45;95560.72;;;27.21;80.24
10940;BME280;5522;42.696;23.494;2022-08-11T14:10:16;95556.88;;;27.22;76.41
10940;BME280;5522;42.696;23.494;2022-08-11T14:12:53;95559.56;;;27.22;74.15
10940;BME280;5522;42.696;23.494;2022-08-11T14:15:42;95551.03;;;27.24;70.86
10940;BME280;5522;42.696;23.494;2022-08-11T14:18:21;95554.22;;;27.19;65.58
10940;BME280;5522;42.696;23.494;2022-08-11T14:20:53;95561.00;;;27.27;65.28
10940;BME280;5522;42.696;23.494;2022-08-11T14:23:40;95558.03;;;27.41;65.41
10940;BME280;5522;42.696;23.494;2022-08-11T14:26:09;95559.28;;;27.36;66.59
10940;BME280;5522;42.696;23.494;2022-08-11T14:28:56;95550.16;;;27.30;59.26
10940;BME280;5522;42.696;23.494;2022-08-11T14:31:29;95544.59;;;27.37;64.23
10940;BME280;5522;42.696;23.494;2022-08-11T14:34:00;95554.53;;;27.60;62.53
10940;BME280;5522;42.696;23.494;2022-08-11T14:36:30;95552.28;;;27.74;61.87
10940;BME280;5522;42.696;23.494;2022-08-11T14:39:00;95551.94;;;27.92;59.67
10940;BME280;5522;42.696;23.494;2022-08-11T14:41:29;95555.97;;;27.84;60.83
10940;BME280;5522;42.696;23.494;2022-08-11T14:44:15;95556.16;;;27.73;60.40
10940;BME280;5522;42.696;23.494;2022-08-11T14:47:00;95553.13;;;27.71;62.66
10940;BME280;5522;42.696;23.494;2022-08-11T14:49:32;95551.09;;;27.59;67.84
10940;BME280;5522;42.696;23.494;2022-08-11T14:52:01;95553.63;;;27.66;66.54
10940;BME280;5522;42.696;23.494;2022-08-11T14:54:30;95549.41;;;27.65;65.92